createdAt,value
2023-02-22T00:04:39.845Z,65632.59
2023-02-22T00:09:44.726Z,65634.81
2023-02-22T00:14:51.287Z,65631.06
2023-02-22T00:19:57.300Z,65633.31
2023-02-22T00:25:01.847Z,65644.44
2023-02-22T00:30:07.757Z,65634.38
2023-02-22T00:35:14.231Z,65655.97
2023-02-22T00:40:20.711Z,65646.56
2023-02-22T00:45:27.406Z,65644.44
2023-02-22T00:50:35.523Z,65639.72
2023-02-22T00:55:40.308Z,65636.88
2023-02-22T01:00:45.145Z,65637.41
2023-02-22T01:05:53.073Z,65640.50
2023-02-22T01:10:58.010Z,65624.16
2023-02-22T01:16:03.825Z,65623.50
2023-02-22T01:21:09.950Z,65622.13
2023-02-22T01:26:14.645Z,65624.03
2023-02-22T01:31:19.596Z,65625.75
2023-02-22T01:36:25.905Z,65626.72
2023-02-22T01:41:30.444Z,65616.06
2023-02-22T01:46:36.571Z,65613.81
2023-02-22T01:51:46.177Z,65608.22
2023-02-22T01:56:55.809Z,65633.22
2023-02-22T02:02:01.175Z,65621.38
2023-02-22T02:07:09.661Z,65613.56
2023-02-22T02:12:17.268Z,65614.19
2023-02-22T02:17:25.187Z,65611.25
2023-02-22T02:22:44.030Z,65615.63
2023-02-22T02:28:11.485Z,65602.28
2023-02-22T02:33:25.867Z,65602.28
2023-02-22T02:38:35.753Z,65614.56
2023-02-22T02:43:47.624Z,65612.31
2023-02-22T02:48:58.816Z,65601.19
2023-02-22T02:54:04.745Z,65598.63
2023-02-22T02:59:27.169Z,65624.03
2023-02-22T03:05:00.108Z,65601.31
2023-02-22T03:10:18.787Z,65610.63
2023-02-22T03:15:37.311Z,65604.84
2023-02-22T03:20:51.683Z,65597.38
2023-02-22T03:26:03.155Z,65607.69
2023-02-22T03:31:14.230Z,65601.63
2023-02-22T03:36:27.314Z,65602.81
2023-02-22T03:41:33.470Z,65599.94
2023-02-22T03:46:42.136Z,65600.13
2023-02-22T03:51:49.636Z,65593.75
2023-02-22T03:56:57.452Z,65590.53
2023-02-22T04:02:02.319Z,65589.03
2023-02-22T04:07:08.414Z,65580.94
2023-02-22T04:12:13.447Z,65576.56
2023-02-22T04:17:41.018Z,65580.41
2023-02-22T04:22:50.968Z,65580.31
2023-02-22T04:27:56.222Z,65575.59
2023-02-22T04:33:12.168Z,65571.34
2023-02-22T04:38:18.984Z,65584.59
2023-02-22T04:43:24.220Z,65581.47
2023-02-22T04:48:31.621Z,65584.03
2023-02-22T04:53:38.248Z,65576.03
2023-02-22T04:58:42.978Z,65579.88
2023-02-22T05:03:47.629Z,65579.25
2023-02-22T05:08:53.697Z,65576.66
2023-02-22T05:13:58.297Z,65568.13
2023-02-22T05:19:03.023Z,65581.19
2023-02-22T05:24:09.331Z,65562.28
2023-02-22T05:29:14.429Z,65579.44
2023-02-22T05:34:19.261Z,65569.72
2023-02-22T05:39:25.264Z,65568.34
2023-02-22T05:44:30.006Z,65561.63
2023-02-22T05:49:34.693Z,65564.72
2023-02-22T05:54:40.883Z,65564.72
2023-02-22T05:59:45.463Z,65565.38
2023-02-22T06:04:50.146Z,65568.56
2023-02-22T06:09:56.418Z,65575.59
2023-02-22T06:15:00.940Z,65580.31
2023-02-22T06:20:05.774Z,65591.19
2023-02-22T06:25:15.377Z,65604.84
2023-02-22T06:30:22.617Z,65608.75
2023-02-22T06:35:27.857Z,65626.72
2023-02-22T06:40:34.085Z,65602.16
2023-02-22T06:45:38.984Z,65609.56
2023-02-22T06:50:43.637Z,65617.13
2023-02-22T06:55:49.797Z,65615.53
2023-02-22T07:00:54.641Z,65627.25
2023-02-22T07:05:59.614Z,65625.53
2023-02-22T07:11:06.076Z,65648.06
2023-02-22T07:16:10.862Z,65665.13
2023-02-22T07:21:15.928Z,65660.34
2023-02-22T07:26:23.359Z,65671.75
2023-02-22T07:31:29.659Z,65674.22
2023-02-22T07:36:34.739Z,65685.72
2023-02-22T07:41:40.805Z,65691.94
2023-02-22T07:46:59.162Z,65696.22
2023-02-22T07:52:03.684Z,65708.50
2023-02-22T07:57:09.928Z,65713.19
2023-02-22T08:02:17.652Z,65734.03
2023-02-22T08:07:22.348Z,65738.84
2023-02-22T08:12:28.450Z,65798.88
2023-02-22T08:17:33.204Z,65798.34
2023-02-22T08:22:38.010Z,65814.28
2023-02-22T08:27:44.344Z,65835.31
2023-02-22T08:32:50.097Z,65799.84
2023-02-22T08:37:57.811Z,65833.06
2023-02-22T08:43:04.981Z,65763.03
2023-02-22T08:48:10.145Z,65757.72
2023-02-22T08:53:16.455Z,65789.25
2023-02-22T08:58:22.682Z,65823.88
2023-02-22T09:03:27.400Z,65796.75
2023-02-22T09:08:32.041Z,65756.34
2023-02-22T09:13:38.170Z,65774.25
2023-02-22T09:18:44.451Z,65755.47
2023-02-22T09:23:49.493Z,65792.91
2023-02-22T09:28:55.507Z,65757.09
2023-02-22T09:34:00.834Z,65751.84
2023-02-22T09:39:06.319Z,65715.53
2023-02-22T09:44:21.525Z,65703.13
2023-02-22T09:49:31.471Z,65787.00
2023-02-22T09:54:41.376Z,65840.88
2023-02-22T09:59:55.119Z,65842.59
2023-02-22T10:05:05.902Z,65907.81
2023-02-22T10:10:18.846Z,65876.91
2023-02-22T10:15:51.650Z,65888.75
2023-02-22T10:21:04.264Z,65850.63
2023-02-22T10:26:17.992Z,65883.69
2023-02-22T10:31:30.016Z,65823.25
2023-02-22T10:36:39.244Z,65772.47
2023-02-22T10:41:50.820Z,65774.63
2023-02-22T10:46:57.039Z,65774.16
2023-02-22T10:52:03.618Z,65911.03
2023-02-22T10:57:08.942Z,65901.75
2023-02-22T11:02:21.220Z,65837.78
2023-02-22T11:07:28.534Z,65872.53
2023-02-22T11:12:34.844Z,65956.41
2023-02-22T11:17:42.048Z,65840.03
2023-02-22T11:22:46.827Z,65846.78
2023-02-22T11:27:52.976Z,65844.28
2023-02-22T11:33:01.047Z,65807.75
2023-02-22T11:38:22.613Z,65786.06
2023-02-22T11:43:30.186Z,65858.53
2023-02-22T11:48:40.310Z,65812.66
2023-02-22T11:54:25.738Z,65818.66
2023-02-22T11:59:38.585Z,65883.69
2023-02-22T12:05:11.015Z,65936.72
2023-02-22T12:10:28.097Z,65909.34
2023-02-22T12:15:40.149Z,65872.09
2023-02-22T12:20:52.351Z,65902.03
2023-02-22T12:26:01.689Z,65834.50
2023-02-22T12:31:20.395Z,65837.06
2023-02-22T12:36:33.737Z,65890.63
2023-02-22T12:41:45.218Z,65848.28
2023-02-22T12:46:53.662Z,65835.66
2023-02-22T12:52:15.946Z,65807.97
2023-02-22T12:57:42.962Z,65909.53
2023-02-22T13:02:56.906Z,65923.34
2023-02-22T13:08:22.773Z,65907.28
2023-02-22T13:13:38.232Z,65869.41
2023-02-22T13:18:50.035Z,65847.31
2023-02-22T13:24:05.400Z,65810.44
2023-02-22T13:29:15.140Z,65803.03
2023-02-22T13:34:59.772Z,65784.41
2023-02-22T13:40:39.941Z,65802.44
2023-02-22T13:46:19.431Z,65820.56
2023-02-22T13:51:43.213Z,65766.25
2023-02-22T13:56:52.390Z,65766.16
2023-02-22T14:01:58.200Z,65776.31
2023-02-22T14:07:04.350Z,65786.38
2023-02-22T14:12:10.607Z,65785.75
2023-02-22T14:17:27.791Z,65803.03
2023-02-22T14:22:32.930Z,65820.69
2023-02-22T14:27:43.652Z,65793.88
2023-02-22T14:32:49.394Z,65815.88
2023-02-22T14:37:57.737Z,65816.75
2023-02-22T14:43:07.879Z,65903.56
2023-02-22T14:48:25.104Z,65784.94
2023-02-22T14:53:39.607Z,65884.22
2023-02-22T14:58:50.053Z,65846.00
2023-02-22T15:04:07.364Z,65877.97
2023-02-22T15:09:24.358Z,65865.03
2023-02-22T15:14:37.735Z,65832.44
2023-02-22T15:19:43.842Z,65781.66
2023-02-22T15:25:00.133Z,65759.22
2023-02-22T15:30:09.087Z,65774.63
2023-02-22T15:35:15.446Z,65810.09
2023-02-22T15:40:22.088Z,65768.94
2023-02-22T15:45:29.105Z,65823.97
2023-02-22T15:50:35.384Z,65755.06
2023-02-22T15:55:50.599Z,65781.13
2023-02-22T16:01:03.740Z,65718.63
2023-02-22T16:06:12.755Z,65725.47
2023-02-22T16:11:30.067Z,65741.06
2023-02-22T16:16:41.817Z,65728.03
2023-02-22T16:21:57.350Z,65753.25
2023-02-22T16:27:08.420Z,65841.09
2023-02-22T16:32:15.883Z,65888.03
2023-02-22T16:37:24.565Z,65836.25
2023-02-22T16:42:29.550Z,65879.06
2023-02-22T16:47:35.676Z,65938.94
2023-02-22T16:52:41.425Z,65907.19
2023-02-22T16:57:46.245Z,65904.00
2023-02-22T17:02:52.001Z,65876.28
2023-02-22T17:07:56.620Z,65837.34
2023-02-22T17:13:16.106Z,65882.78
2023-02-22T17:18:29.138Z,65781.13
2023-02-22T17:23:33.860Z,65781.75
2023-02-22T17:28:48.583Z,65737.41
2023-02-22T17:33:57.737Z,65790.66
2023-02-22T17:39:02.257Z,65775.25
2023-02-22T17:44:07.103Z,65751.75
2023-02-22T17:49:15.872Z,65730.47
2023-02-22T17:54:20.723Z,65728.13
2023-02-22T17:59:26.970Z,65750.06
2023-02-22T18:04:34.831Z,65640.69
2023-02-22T18:09:39.385Z,65607.16
2023-02-22T18:14:43.919Z,65618.91
2023-02-22T18:19:50.149Z,65664.19
2023-02-22T18:24:58.415Z,65612.50
2023-02-22T18:30:06.339Z,65584.03
2023-02-22T18:35:12.318Z,65540.28
2023-02-22T18:40:22.023Z,65572.41
2023-02-22T18:45:32.118Z,65544.13
2023-02-22T18:50:43.037Z,65537.09
2023-02-22T18:55:51.198Z,65503.53
2023-02-22T19:01:10.285Z,65562.16
2023-02-22T19:06:18.897Z,65525.91
2023-02-22T19:11:26.024Z,65461.06
2023-02-22T19:16:34.764Z,65517.91
2023-02-22T19:21:41.278Z,65523.25
2023-02-22T19:26:50.885Z,65447.56
2023-02-22T19:31:55.888Z,65470.47
2023-02-22T19:44:37.730Z,65460.44
2023-02-22T19:49:42.708Z,65486.56
2023-02-22T19:54:47.306Z,65469.41
2023-02-22T19:59:54.890Z,65420.41
2023-02-22T20:04:59.743Z,65435.84
2023-02-22T20:10:16.437Z,65428.91
2023-02-22T20:15:24.137Z,65392.69
2023-02-22T20:20:30.659Z,65352.66
2023-02-22T20:25:35.958Z,65466.63
2023-02-22T20:30:42.004Z,65390.03
2023-02-22T20:35:46.960Z,65393.13
2023-02-22T20:40:51.630Z,65346.34
2023-02-22T20:45:57.618Z,65343.06
2023-02-22T20:51:07.403Z,65320.72
2023-02-22T20:56:14.768Z,65297.94
2023-02-22T21:01:22.695Z,65261.31
2023-02-22T21:06:27.489Z,65265.47
2023-02-22T21:11:32.910Z,65315.91
2023-02-22T21:16:39.169Z,65274.09
2023-02-22T21:21:44.180Z,65295.81
2023-02-22T21:26:49.074Z,65283.44
2023-02-22T21:31:55.414Z,65283.03
2023-02-22T21:37:00.024Z,65281.97
2023-02-22T21:42:07.335Z,65244.72
2023-02-22T21:47:13.466Z,65232.06
2023-02-22T21:52:18.584Z,65236.09
2023-02-22T21:57:23.106Z,65262.38
2023-02-22T22:02:29.914Z,65279.84
2023-02-22T22:07:34.698Z,65308.88
2023-02-22T22:12:42.725Z,65234.72
2023-02-22T22:17:48.856Z,65235.47
2023-02-22T22:22:55.098Z,65222.91
2023-02-22T22:28:09.615Z,65224.09
2023-02-22T22:33:15.792Z,65221.31
2023-02-22T22:38:20.856Z,65183.66
2023-02-22T22:43:25.346Z,65205.47
2023-02-22T22:48:36.115Z,65183.13
2023-02-22T22:53:43.042Z,65220.25
2023-02-22T22:58:50.273Z,65220.69
2023-02-22T23:04:01.311Z,65295.81
2023-02-22T23:09:11.745Z,65229.19
2023-02-22T23:14:19.668Z,65260.47
2023-02-22T23:19:25.451Z,65273.03
2023-02-22T23:24:29.468Z,65218.56
2023-02-22T23:29:35.159Z,65225.03
2023-02-22T23:34:41.896Z,65189.94
2023-02-22T23:39:46.213Z,65160.06
2023-02-22T23:44:53.044Z,65210.03
2023-02-22T23:49:59.166Z,65159.31
2023-02-22T23:55:05.595Z,65205.81
